TRA6591 EHAM-LOWS
Flight info
| Callsign | TRA6591 |
|---|---|
| Flight time | 1h 8m |
| Altitude | 35000 |
| Route | EDUPO Z739 MISGO DCT TIVUN/N0461F370 DCT ESAMA DCT OSBIT DCT BOREP DCT ARMUT/N0458F310 T703 ARBAX/N0459F300 T108 OSTES T700 BADIT BADIT2R |
| Aircraft | B738/M-SDE2E3FGHIRWXY/LB1 |
Departure
| Time | 2026-05-06 17:15 |
|---|---|
| Airport | Amsterdam Airport Schiphol (EHAM) |
Arrival
| Time | 2026-05-06 18:24 |
|---|---|
| Airport | Salzburg Airport (LOWS) |
| Time | Latitude | Longitude | Altitude | Speed | Heading |
|---|---|---|---|---|---|
| 2026-05-06 16:41 | 52.30709 | 4.76953 | -2 ft | 0 kts | 33° |
| 2026-05-06 16:52 | 52.30709 | 4.76952 | -2 ft | 1 kts | 33° |
| 2026-05-06 16:53 | 52.30699 | 4.76943 | -2 ft | 3 kts | 359° |
| 2026-05-06 16:53 | 52.30682 | 4.76938 | -2 ft | 3 kts | 23° |
| 2026-05-06 16:53 | 52.30666 | 4.76922 | -2 ft | 3 kts | 52° |
| 2026-05-06 16:53 | 52.30657 | 4.76895 | -2 ft | 3 kts | 83° |
| 2026-05-06 16:54 | 52.30656 | 4.76879 | -2 ft | 0 kts | 90° |
| 2026-05-06 16:56 | 52.30656 | 4.76887 | -2 ft | 1 kts | 90° |
| 2026-05-06 16:56 | 52.30656 | 4.76915 | -2 ft | 4 kts | 90° |
| 2026-05-06 16:56 | 52.30655 | 4.76966 | -2 ft | 6 kts | 93° |
| 2026-05-06 16:57 | 52.30652 | 4.77040 | -2 ft | 7 kts | 93° |
| 2026-05-06 16:57 | 52.30650 | 4.77119 | -2 ft | 7 kts | 92° |
| 2026-05-06 16:57 | 52.30647 | 4.77197 | -2 ft | 7 kts | 93° |
| 2026-05-06 16:57 | 52.30645 | 4.77273 | -2 ft | 7 kts | 93° |
| 2026-05-06 16:58 | 52.30642 | 4.77348 | -2 ft | 7 kts | 93° |
| 2026-05-06 16:58 | 52.30648 | 4.77421 | -2 ft | 7 kts | 62° |
| 2026-05-06 16:58 | 52.30693 | 4.77456 | -2 ft | 8 kts | 7° |
| 2026-05-06 16:58 | 52.30755 | 4.77460 | -2 ft | 10 kts | 2° |
| 2026-05-06 16:59 | 52.30830 | 4.77467 | -2 ft | 12 kts | 3° |
| 2026-05-06 16:59 | 52.30914 | 4.77476 | -2 ft | 13 kts | 3° |
| 2026-05-06 16:59 | 52.31007 | 4.77484 | -2 ft | 14 kts | 2° |
| 2026-05-06 16:59 | 52.31108 | 4.77493 | -2 ft | 15 kts | 4° |
| 2026-05-06 17:00 | 52.31213 | 4.77501 | -2 ft | 15 kts | 2° |
| 2026-05-06 17:00 | 52.31315 | 4.77461 | -2 ft | 16 kts | 325° |
| 2026-05-06 17:00 | 52.31389 | 4.77329 | -2 ft | 14 kts | 310° |
| 2026-05-06 17:00 | 52.31427 | 4.77256 | -2 ft | 9 kts | 310° |
| 2026-05-06 17:01 | 52.31468 | 4.77168 | -2 ft | 11 kts | 298° |
| 2026-05-06 17:01 | 52.31482 | 4.77035 | -2 ft | 13 kts | 270° |
| 2026-05-06 17:01 | 52.31479 | 4.76871 | -2 ft | 16 kts | 265° |
| 2026-05-06 17:01 | 52.31472 | 4.76691 | -2 ft | 16 kts | 267° |
| 2026-05-06 17:02 | 52.31465 | 4.76510 | -2 ft | 16 kts | 266° |
| 2026-05-06 17:02 | 52.31459 | 4.76334 | -2 ft | 15 kts | 266° |
| 2026-05-06 17:02 | 52.31454 | 4.76203 | -2 ft | 10 kts | 267° |
| 2026-05-06 17:02 | 52.31450 | 4.76091 | -2 ft | 10 kts | 267° |
| 2026-05-06 17:03 | 52.31447 | 4.75986 | -2 ft | 9 kts | 266° |
| 2026-05-06 17:03 | 52.31442 | 4.75870 | -2 ft | 11 kts | 266° |
| 2026-05-06 17:03 | 52.31438 | 4.75736 | -2 ft | 13 kts | 267° |
| 2026-05-06 17:03 | 52.31431 | 4.75585 | -2 ft | 13 kts | 264° |
| 2026-05-06 17:04 | 52.31442 | 4.75463 | -2 ft | 10 kts | 315° |
| 2026-05-06 17:04 | 52.31504 | 4.75392 | -2 ft | 12 kts | 297° |
| 2026-05-06 17:04 | 52.30709 | 4.76953 | -2 ft | 0 kts | 33° |
| 2026-05-06 17:05 | 52.30710 | 4.76953 | -2 ft | 0 kts | 30° |
| 2026-05-06 17:05 | 52.30711 | 4.76952 | -2 ft | 0 kts | 13° |
| 2026-05-06 17:05 | 52.30714 | 4.76944 | -2 ft | 1 kts | 306° |
| 2026-05-06 17:06 | 52.30709 | 4.76920 | -2 ft | 5 kts | 247° |
| 2026-05-06 17:06 | 52.30677 | 4.76866 | -2 ft | 8 kts | 181° |
| 2026-05-06 17:06 | 52.30654 | 4.76941 | -2 ft | 10 kts | 88° |
| 2026-05-06 17:06 | 52.30651 | 4.77088 | -2 ft | 15 kts | 92° |
| 2026-05-06 17:07 | 52.30644 | 4.77282 | -2 ft | 18 kts | 93° |
| 2026-05-06 17:07 | 52.30652 | 4.77425 | -2 ft | 12 kts | 56° |
| 2026-05-06 17:07 | 52.30733 | 4.77458 | -2 ft | 12 kts | 4° |
| 2026-05-06 17:07 | 52.30816 | 4.77467 | -2 ft | 12 kts | 3° |
| 2026-05-06 17:08 | 52.30897 | 4.77473 | -2 ft | 12 kts | 2° |
| 2026-05-06 17:08 | 52.30976 | 4.77481 | -2 ft | 11 kts | 4° |
| 2026-05-06 17:08 | 52.31053 | 4.77487 | -2 ft | 11 kts | 2° |
| 2026-05-06 17:08 | 52.31127 | 4.77494 | -2 ft | 11 kts | 4° |
| 2026-05-06 17:09 | 52.31200 | 4.77500 | -2 ft | 10 kts | 2° |
| 2026-05-06 17:09 | 52.31271 | 4.77496 | -2 ft | 10 kts | 349° |
| 2026-05-06 17:09 | 52.31332 | 4.77435 | -2 ft | 12 kts | 313° |
| 2026-05-06 17:09 | 52.31393 | 4.77322 | -2 ft | 14 kts | 309° |
| 2026-05-06 17:10 | 52.31455 | 4.77198 | -2 ft | 13 kts | 310° |
| 2026-05-06 17:10 | 52.31482 | 4.77067 | -2 ft | 14 kts | 271° |
| 2026-05-06 17:10 | 52.31478 | 4.76888 | -2 ft | 18 kts | 266° |
| 2026-05-06 17:10 | 52.31470 | 4.76670 | -2 ft | 21 kts | 267° |
| 2026-05-06 17:11 | 52.31462 | 4.76424 | -2 ft | 23 kts | 267° |
| 2026-05-06 17:11 | 52.31452 | 4.76149 | -2 ft | 25 kts | 267° |
| 2026-05-06 17:11 | 52.31443 | 4.75876 | -2 ft | 23 kts | 267° |
| 2026-05-06 17:11 | 52.31433 | 4.75618 | -2 ft | 22 kts | 266° |
| 2026-05-06 17:12 | 52.31423 | 4.75367 | -2 ft | 22 kts | 266° |
| 2026-05-06 17:12 | 52.31415 | 4.75125 | -2 ft | 21 kts | 268° |
| 2026-05-06 17:12 | 52.31410 | 4.74920 | -2 ft | 16 kts | 267° |
| 2026-05-06 17:12 | 52.31405 | 4.74751 | -2 ft | 14 kts | 274° |
| 2026-05-06 17:13 | 52.31477 | 4.74671 | -2 ft | 13 kts | 356° |
| 2026-05-06 17:13 | 52.31542 | 4.74664 | -2 ft | 5 kts | 356° |
| 2026-05-06 17:13 | 52.31575 | 4.74661 | -2 ft | 5 kts | 357° |
| 2026-05-06 17:13 | 52.31607 | 4.74665 | -2 ft | 5 kts | 7° |
| 2026-05-06 17:14 | 52.31637 | 4.74681 | -1 ft | 5 kts | 26° |
| 2026-05-06 17:14 | 52.31660 | 4.74716 | -1 ft | 5 kts | 60° |
| 2026-05-06 17:14 | 52.31668 | 4.74789 | -2 ft | 10 kts | 86° |
| 2026-05-06 17:14 | 52.31682 | 4.75175 | -4 ft | 64 kts | 87° |
| 2026-05-06 17:15 | 52.31718 | 4.76216 | -1 ft | 118 kts | 86° |
| 2026-05-06 17:15 | 52.31752 | 4.77787 | 64 ft | 152 kts | 83° |
| 2026-05-06 17:15 | 52.31791 | 4.79522 | 568 ft | 149 kts | 82° |
| 2026-05-06 17:15 | 52.31858 | 4.81215 | 1129 ft | 148 kts | 82° |
| 2026-05-06 17:16 | 52.31942 | 4.82980 | 1409 ft | 165 kts | 83° |
| 2026-05-06 17:16 | 52.32035 | 4.84842 | 1647 ft | 184 kts | 83° |
| 2026-05-06 17:16 | 52.31966 | 4.87064 | 1806 ft | 207 kts | 104° |
| 2026-05-06 17:16 | 52.31375 | 4.89319 | 1957 ft | 223 kts | 110° |
| 2026-05-06 17:17 | 52.30737 | 4.91733 | 2110 ft | 240 kts | 109° |
| 2026-05-06 17:17 | 52.30061 | 4.94310 | 2451 ft | 251 kts | 110° |
| 2026-05-06 17:17 | 52.29392 | 4.96976 | 2969 ft | 257 kts | 107° |
| 2026-05-06 17:17 | 52.28871 | 4.99797 | 3584 ft | 258 kts | 102° |
| 2026-05-06 17:18 | 52.28396 | 5.02630 | 4177 ft | 262 kts | 102° |
| 2026-05-06 17:18 | 52.27915 | 5.05511 | 4723 ft | 266 kts | 103° |
| 2026-05-06 17:18 | 52.27422 | 5.08413 | 5364 ft | 267 kts | 104° |
| 2026-05-06 17:18 | 52.26917 | 5.11356 | 5955 ft | 271 kts | 105° |
| 2026-05-06 17:19 | 52.26404 | 5.14325 | 6568 ft | 273 kts | 105° |
| 2026-05-06 17:19 | 52.25880 | 5.17331 | 7140 ft | 277 kts | 105° |
| 2026-05-06 17:19 | 52.25348 | 5.20364 | 7709 ft | 280 kts | 105° |
| 2026-05-06 17:19 | 52.24813 | 5.23408 | 8298 ft | 284 kts | 105° |
| 2026-05-06 17:20 | 52.24143 | 5.26502 | 8909 ft | 288 kts | 118° |
| 2026-05-06 17:20 | 52.23021 | 5.29233 | 9512 ft | 292 kts | 126° |
| 2026-05-06 17:20 | 52.21810 | 5.31925 | 10088 ft | 297 kts | 126° |
| 2026-05-06 17:20 | 52.20566 | 5.34694 | 10266 ft | 318 kts | 126° |
| 2026-05-06 17:21 | 52.19215 | 5.37732 | 10443 ft | 336 kts | 126° |
| 2026-05-06 17:21 | 52.17812 | 5.40915 | 10592 ft | 355 kts | 126° |
| 2026-05-06 17:21 | 52.16369 | 5.44208 | 10852 ft | 367 kts | 125° |
| 2026-05-06 17:21 | 52.14867 | 5.47648 | 11325 ft | 373 kts | 125° |
| 2026-05-06 17:22 | 52.13356 | 5.51112 | 11885 ft | 376 kts | 125° |
| 2026-05-06 17:22 | 52.12714 | 5.52579 | 12127 ft | 379 kts | 125° |
| 2026-05-06 17:22 | 52.11270 | 5.55881 | 12627 ft | 383 kts | 125° |
| 2026-05-06 17:22 | 52.09719 | 5.59422 | 13229 ft | 386 kts | 125° |
| 2026-05-06 17:23 | 52.08153 | 5.62992 | 13812 ft | 391 kts | 125° |
| 2026-05-06 17:23 | 52.06570 | 5.66594 | 14438 ft | 391 kts | 125° |
| 2026-05-06 17:23 | 52.04909 | 5.70114 | 15013 ft | 395 kts | 130° |
| 2026-05-06 17:23 | 52.03085 | 5.73503 | 15548 ft | 399 kts | 132° |
| 2026-05-06 17:24 | 52.01232 | 5.76859 | 16122 ft | 401 kts | 132° |
| 2026-05-06 17:24 | 51.99372 | 5.80279 | 16636 ft | 406 kts | 131° |
| 2026-05-06 17:24 | 51.97514 | 5.83741 | 17258 ft | 407 kts | 131° |
| 2026-05-06 17:24 | 51.95655 | 5.87216 | 17864 ft | 409 kts | 131° |
| 2026-05-06 17:25 | 51.93786 | 5.90699 | 18395 ft | 411 kts | 132° |
| 2026-05-06 17:25 | 51.91899 | 5.94210 | 18855 ft | 414 kts | 132° |
| 2026-05-06 17:25 | 51.89991 | 5.97756 | 19289 ft | 418 kts | 133° |
| 2026-05-06 17:25 | 51.88074 | 6.01314 | 19783 ft | 419 kts | 132° |
| 2026-05-06 17:26 | 51.86154 | 6.04870 | 20279 ft | 422 kts | 133° |
| 2026-05-06 17:26 | 51.84235 | 6.08410 | 20601 ft | 427 kts | 133° |
| 2026-05-06 17:26 | 51.82252 | 6.12039 | 21030 ft | 430 kts | 133° |
| 2026-05-06 17:26 | 51.80269 | 6.15664 | 21493 ft | 432 kts | 133° |
| 2026-05-06 17:27 | 51.78270 | 6.19314 | 21914 ft | 435 kts | 133° |
| 2026-05-06 17:27 | 51.76257 | 6.22985 | 22322 ft | 438 kts | 133° |
| 2026-05-06 17:27 | 51.74236 | 6.26675 | 22706 ft | 441 kts | 133° |
| 2026-05-06 17:27 | 51.72193 | 6.30403 | 23093 ft | 444 kts | 133° |
| 2026-05-06 17:28 | 51.70153 | 6.34124 | 23465 ft | 447 kts | 133° |
| 2026-05-06 17:28 | 51.68086 | 6.37890 | 23795 ft | 449 kts | 133° |
| 2026-05-06 17:28 | 51.66013 | 6.41661 | 24152 ft | 451 kts | 133° |
| 2026-05-06 17:28 | 51.63928 | 6.45447 | 24505 ft | 452 kts | 133° |
| 2026-05-06 17:29 | 51.61838 | 6.49232 | 24876 ft | 452 kts | 133° |
| 2026-05-06 17:29 | 51.60444 | 6.51755 | 25193 ft | 451 kts | 133° |
| 2026-05-06 17:29 | 51.58378 | 6.55486 | 25519 ft | 452 kts | 133° |
| 2026-05-06 17:29 | 51.56254 | 6.59320 | 25765 ft | 456 kts | 133° |
| 2026-05-06 17:30 | 51.54133 | 6.63143 | 26042 ft | 458 kts | 133° |
| 2026-05-06 17:30 | 51.52008 | 6.66969 | 26338 ft | 460 kts | 134° |
| 2026-05-06 17:30 | 51.49907 | 6.70749 | 26637 ft | 461 kts | 134° |
| 2026-05-06 17:30 | 51.47761 | 6.74601 | 26911 ft | 463 kts | 134° |
| 2026-05-06 17:31 | 51.45606 | 6.78467 | 27155 ft | 466 kts | 134° |
| 2026-05-06 17:31 | 51.43448 | 6.82330 | 27409 ft | 468 kts | 134° |
| 2026-05-06 17:31 | 51.41271 | 6.86221 | 27678 ft | 469 kts | 134° |
| 2026-05-06 17:31 | 51.39202 | 6.90274 | 27935 ft | 472 kts | 128° |
| 2026-05-06 17:32 | 51.37313 | 6.94608 | 28209 ft | 474 kts | 126° |
| 2026-05-06 17:32 | 51.35491 | 6.98971 | 28638 ft | 471 kts | 126° |
| 2026-05-06 17:32 | 51.33688 | 7.03332 | 29239 ft | 466 kts | 126° |
| 2026-05-06 17:32 | 51.31897 | 7.07634 | 29666 ft | 464 kts | 126° |
| 2026-05-06 17:33 | 51.30090 | 7.11921 | 29928 ft | 465 kts | 126° |
| 2026-05-06 17:33 | 51.28273 | 7.16189 | 30151 ft | 466 kts | 127° |
| 2026-05-06 17:33 | 51.26438 | 7.20465 | 30393 ft | 466 kts | 127° |
| 2026-05-06 17:33 | 51.24601 | 7.24729 | 30653 ft | 466 kts | 127° |
| 2026-05-06 17:34 | 51.22762 | 7.28986 | 30941 ft | 465 kts | 127° |
| 2026-05-06 17:34 | 51.20926 | 7.33228 | 31199 ft | 465 kts | 127° |
| 2026-05-06 17:34 | 51.19087 | 7.37471 | 31446 ft | 465 kts | 127° |
| 2026-05-06 17:34 | 51.17246 | 7.41714 | 31718 ft | 465 kts | 128° |
| 2026-05-06 17:35 | 51.15409 | 7.45942 | 31996 ft | 464 kts | 128° |
| 2026-05-06 17:35 | 51.13571 | 7.50166 | 32252 ft | 464 kts | 128° |
| 2026-05-06 17:35 | 51.11734 | 7.54382 | 32492 ft | 464 kts | 128° |
| 2026-05-06 17:36 | 51.08054 | 7.62807 | 33011 ft | 462 kts | 128° |
| 2026-05-06 17:36 | 51.06227 | 7.66983 | 33407 ft | 458 kts | 129° |
| 2026-05-06 17:36 | 51.04408 | 7.71130 | 33696 ft | 458 kts | 129° |
| 2026-05-06 17:36 | 51.02581 | 7.75287 | 33866 ft | 459 kts | 129° |
| 2026-05-06 17:37 | 51.00751 | 7.79445 | 34017 ft | 460 kts | 129° |
| 2026-05-06 17:37 | 50.98920 | 7.83602 | 34208 ft | 459 kts | 129° |
| 2026-05-06 17:37 | 50.97094 | 7.87741 | 34413 ft | 459 kts | 129° |
| 2026-05-06 17:37 | 50.95259 | 7.91895 | 34574 ft | 459 kts | 129° |
| 2026-05-06 17:38 | 50.93418 | 7.96046 | 34727 ft | 459 kts | 129° |
| 2026-05-06 17:38 | 50.91426 | 7.99968 | 34879 ft | 455 kts | 138° |
| 2026-05-06 17:38 | 50.89178 | 8.03480 | 35036 ft | 453 kts | 140° |
| 2026-05-06 17:38 | 50.86886 | 8.06905 | 35219 ft | 452 kts | 141° |
| 2026-05-06 17:39 | 50.84585 | 8.10312 | 35362 ft | 453 kts | 141° |
| 2026-05-06 17:39 | 50.82291 | 8.13724 | 35481 ft | 454 kts | 141° |
| 2026-05-06 17:39 | 50.79995 | 8.17165 | 35676 ft | 454 kts | 140° |
| 2026-05-06 17:39 | 50.77713 | 8.20607 | 35833 ft | 453 kts | 140° |
| 2026-05-06 17:40 | 50.75440 | 8.24048 | 35988 ft | 454 kts | 140° |
| 2026-05-06 17:40 | 50.73167 | 8.27495 | 36123 ft | 454 kts | 140° |
| 2026-05-06 17:40 | 50.70892 | 8.30942 | 36266 ft | 454 kts | 140° |
| 2026-05-06 17:40 | 50.68616 | 8.34388 | 36406 ft | 454 kts | 140° |
| 2026-05-06 17:41 | 50.66328 | 8.37845 | 36542 ft | 454 kts | 140° |
| 2026-05-06 17:41 | 50.64044 | 8.41289 | 36676 ft | 454 kts | 140° |
| 2026-05-06 17:41 | 50.61761 | 8.44727 | 36781 ft | 455 kts | 140° |
| 2026-05-06 17:41 | 50.59469 | 8.48173 | 36798 ft | 456 kts | 140° |
| 2026-05-06 17:42 | 50.54873 | 8.55067 | 36801 ft | 456 kts | 140° |
| 2026-05-06 17:42 | 50.50287 | 8.61930 | 36799 ft | 454 kts | 140° |
| 2026-05-06 17:43 | 50.45717 | 8.68749 | 36810 ft | 453 kts | 140° |
| 2026-05-06 17:43 | 50.41148 | 8.75549 | 36800 ft | 452 kts | 141° |
| 2026-05-06 17:44 | 50.36591 | 8.82317 | 36797 ft | 451 kts | 139° |
| 2026-05-06 17:44 | 50.32782 | 8.90197 | 36797 ft | 460 kts | 121° |
| 2026-05-06 17:45 | 50.30141 | 8.99293 | 36801 ft | 462 kts | 117° |
| 2026-05-06 17:45 | 50.27572 | 9.08427 | 36794 ft | 462 kts | 118° |
| 2026-05-06 17:46 | 50.24938 | 9.17583 | 36801 ft | 461 kts | 118° |
| 2026-05-06 17:46 | 50.22272 | 9.26712 | 36826 ft | 462 kts | 118° |
| 2026-05-06 17:47 | 50.19590 | 9.35841 | 36801 ft | 463 kts | 118° |
| 2026-05-06 17:47 | 50.16900 | 9.44970 | 36803 ft | 463 kts | 118° |
| 2026-05-06 17:48 | 50.14221 | 9.54031 | 36795 ft | 462 kts | 118° |
| 2026-05-06 17:48 | 50.11522 | 9.63127 | 36794 ft | 462 kts | 119° |
| 2026-05-06 17:49 | 50.08799 | 9.72278 | 36783 ft | 463 kts | 119° |
| 2026-05-06 17:49 | 50.06479 | 9.81633 | 36779 ft | 469 kts | 106° |
| 2026-05-06 17:50 | 50.05299 | 9.91591 | 36774 ft | 471 kts | 104° |
| 2026-05-06 17:50 | 50.04171 | 10.01582 | 36779 ft | 471 kts | 104° |
| 2026-05-06 17:51 | 50.02980 | 10.11600 | 36759 ft | 471 kts | 105° |
| 2026-05-06 17:51 | 50.01753 | 10.21600 | 36774 ft | 471 kts | 105° |
| 2026-05-06 17:52 | 50.00514 | 10.31600 | 36782 ft | 471 kts | 105° |
| 2026-05-06 17:52 | 49.99267 | 10.41611 | 36777 ft | 472 kts | 105° |
| 2026-05-06 17:53 | 49.98013 | 10.51615 | 36781 ft | 472 kts | 105° |
| 2026-05-06 17:53 | 49.96748 | 10.61638 | 36770 ft | 472 kts | 105° |
| 2026-05-06 17:54 | 49.95429 | 10.71620 | 36781 ft | 472 kts | 107° |
| 2026-05-06 17:54 | 49.94050 | 10.81596 | 36784 ft | 473 kts | 107° |
| 2026-05-06 17:55 | 49.92671 | 10.91524 | 36782 ft | 474 kts | 107° |
| 2026-05-06 17:55 | 49.91283 | 11.01519 | 36773 ft | 474 kts | 107° |
| 2026-05-06 17:56 | 49.89888 | 11.11520 | 36780 ft | 475 kts | 107° |
| 2026-05-06 17:56 | 49.88482 | 11.21538 | 36777 ft | 475 kts | 107° |
| 2026-05-06 17:57 | 49.86124 | 11.30860 | 36772 ft | 458 kts | 131° |
| 2026-05-06 17:57 | 49.81691 | 11.37646 | 36786 ft | 444 kts | 148° |
| 2026-05-06 17:58 | 49.76755 | 11.43435 | 36772 ft | 445 kts | 147° |
| 2026-05-06 17:58 | 49.71872 | 11.49261 | 36450 ft | 446 kts | 147° |
| 2026-05-06 17:59 | 49.69399 | 11.52232 | 36210 ft | 442 kts | 148° |
| 2026-05-06 17:59 | 49.67017 | 11.55096 | 35959 ft | 438 kts | 148° |
| 2026-05-06 17:59 | 49.64616 | 11.57979 | 35710 ft | 437 kts | 148° |
| 2026-05-06 17:59 | 49.62212 | 11.60859 | 35460 ft | 438 kts | 148° |
| 2026-05-06 18:00 | 49.59803 | 11.63741 | 35212 ft | 438 kts | 148° |
| 2026-05-06 18:00 | 49.57377 | 11.66639 | 34971 ft | 437 kts | 148° |
| 2026-05-06 18:00 | 49.54997 | 11.69478 | 34740 ft | 437 kts | 149° |
| 2026-05-06 18:00 | 49.52557 | 11.72384 | 34469 ft | 437 kts | 149° |
| 2026-05-06 18:01 | 49.50182 | 11.75209 | 34236 ft | 437 kts | 149° |
| 2026-05-06 18:01 | 49.47778 | 11.78066 | 34000 ft | 437 kts | 150° |
| 2026-05-06 18:01 | 49.45366 | 11.80928 | 33777 ft | 437 kts | 150° |
| 2026-05-06 18:01 | 49.42960 | 11.83779 | 33503 ft | 437 kts | 150° |
| 2026-05-06 18:02 | 49.40554 | 11.86627 | 33216 ft | 437 kts | 150° |
| 2026-05-06 18:02 | 49.38147 | 11.89471 | 32942 ft | 436 kts | 150° |
| 2026-05-06 18:02 | 49.35737 | 11.92317 | 32676 ft | 436 kts | 150° |
| 2026-05-06 18:02 | 49.33336 | 11.95148 | 32422 ft | 436 kts | 149° |
| 2026-05-06 18:03 | 49.30929 | 11.97983 | 32147 ft | 436 kts | 149° |
| 2026-05-06 18:03 | 49.28516 | 12.00821 | 31895 ft | 436 kts | 149° |
| 2026-05-06 18:03 | 49.26109 | 12.03649 | 31768 ft | 436 kts | 149° |
| 2026-05-06 18:03 | 49.23701 | 12.06474 | 31722 ft | 437 kts | 149° |
| 2026-05-06 18:04 | 49.18841 | 12.12160 | 31782 ft | 443 kts | 149° |
| 2026-05-06 18:04 | 49.13941 | 12.17880 | 31372 ft | 449 kts | 149° |
| 2026-05-06 18:05 | 49.11470 | 12.20763 | 30823 ft | 445 kts | 149° |
| 2026-05-06 18:05 | 49.09011 | 12.23632 | 30126 ft | 445 kts | 148° |
| 2026-05-06 18:05 | 49.06545 | 12.26501 | 29260 ft | 447 kts | 148° |
| 2026-05-06 18:05 | 49.04065 | 12.29381 | 28373 ft | 448 kts | 148° |
| 2026-05-06 18:06 | 49.01567 | 12.32276 | 27310 ft | 454 kts | 148° |
| 2026-05-06 18:06 | 48.99068 | 12.35173 | 27025 ft | 450 kts | 148° |
| 2026-05-06 18:06 | 48.96615 | 12.38017 | 26868 ft | 437 kts | 148° |
| 2026-05-06 18:06 | 48.94234 | 12.40779 | 26735 ft | 422 kts | 148° |
| 2026-05-06 18:07 | 48.91932 | 12.43444 | 26530 ft | 411 kts | 148° |
| 2026-05-06 18:07 | 48.89665 | 12.46056 | 26110 ft | 406 kts | 148° |
| 2026-05-06 18:07 | 48.87417 | 12.48638 | 25355 ft | 409 kts | 148° |
| 2026-05-06 18:07 | 48.85101 | 12.51287 | 24098 ft | 425 kts | 148° |
| 2026-05-06 18:08 | 48.82700 | 12.54035 | 23087 ft | 434 kts | 147° |
| 2026-05-06 18:08 | 48.80295 | 12.56799 | 22381 ft | 432 kts | 147° |
| 2026-05-06 18:08 | 48.77936 | 12.59514 | 21809 ft | 420 kts | 147° |
| 2026-05-06 18:08 | 48.75622 | 12.62169 | 20930 ft | 413 kts | 147° |
| 2026-05-06 18:09 | 48.73334 | 12.64770 | 19939 ft | 410 kts | 149° |
| 2026-05-06 18:09 | 48.70892 | 12.66920 | 19196 ft | 405 kts | 159° |
| 2026-05-06 18:09 | 48.68258 | 12.68456 | 18305 ft | 406 kts | 167° |
| 2026-05-06 18:09 | 48.65518 | 12.69312 | 17560 ft | 398 kts | 174° |
| 2026-05-06 18:10 | 48.62815 | 12.69940 | 16902 ft | 387 kts | 174° |
| 2026-05-06 18:10 | 48.60190 | 12.70584 | 16317 ft | 377 kts | 173° |
| 2026-05-06 18:10 | 48.57626 | 12.71178 | 15718 ft | 369 kts | 175° |
| 2026-05-06 18:10 | 48.55086 | 12.71721 | 15159 ft | 368 kts | 175° |
| 2026-05-06 18:11 | 48.52554 | 12.72251 | 14611 ft | 367 kts | 175° |
| 2026-05-06 18:11 | 48.50874 | 12.72605 | 14229 ft | 366 kts | 175° |
| 2026-05-06 18:11 | 48.47543 | 12.73314 | 13497 ft | 365 kts | 174° |
| 2026-05-06 18:11 | 48.45030 | 12.73853 | 12894 ft | 364 kts | 174° |
| 2026-05-06 18:12 | 48.42529 | 12.74391 | 12319 ft | 362 kts | 174° |
| 2026-05-06 18:12 | 48.40047 | 12.74928 | 11764 ft | 360 kts | 174° |
| 2026-05-06 18:12 | 48.37586 | 12.75654 | 11218 ft | 359 kts | 170° |
| 2026-05-06 18:12 | 48.35163 | 12.76531 | 10725 ft | 356 kts | 169° |
| 2026-05-06 18:13 | 48.32811 | 12.77423 | 10613 ft | 342 kts | 169° |
| 2026-05-06 18:13 | 48.30543 | 12.78278 | 10462 ft | 330 kts | 169° |
| 2026-05-06 18:13 | 48.28350 | 12.79091 | 10318 ft | 319 kts | 169° |
| 2026-05-06 18:13 | 48.26233 | 12.79864 | 10200 ft | 308 kts | 169° |
| 2026-05-06 18:14 | 48.24864 | 12.80360 | 10117 ft | 302 kts | 170° |
| 2026-05-06 18:14 | 48.22853 | 12.81085 | 9992 ft | 293 kts | 170° |
| 2026-05-06 18:14 | 48.20912 | 12.81855 | 9846 ft | 287 kts | 162° |
| 2026-05-06 18:14 | 48.19120 | 12.83176 | 9701 ft | 282 kts | 155° |
| 2026-05-06 18:15 | 48.17468 | 12.84632 | 9667 ft | 271 kts | 154° |
| 2026-05-06 18:15 | 48.15817 | 12.86102 | 9054 ft | 276 kts | 154° |
| 2026-05-06 18:15 | 48.14183 | 12.87542 | 8648 ft | 271 kts | 154° |
| 2026-05-06 18:15 | 48.12582 | 12.88932 | 8338 ft | 262 kts | 154° |
| 2026-05-06 18:16 | 48.11020 | 12.90272 | 8017 ft | 255 kts | 155° |
| 2026-05-06 18:16 | 48.09499 | 12.91568 | 7750 ft | 248 kts | 154° |
| 2026-05-06 18:16 | 48.08019 | 12.92820 | 7481 ft | 242 kts | 154° |
| 2026-05-06 18:16 | 48.06551 | 12.94058 | 7235 ft | 242 kts | 154° |
| 2026-05-06 18:17 | 48.05065 | 12.95306 | 7006 ft | 251 kts | 154° |
| 2026-05-06 18:17 | 48.03510 | 12.96610 | 6807 ft | 259 kts | 153° |
| 2026-05-06 18:17 | 48.01915 | 12.97948 | 6547 ft | 266 kts | 153° |
| 2026-05-06 18:17 | 48.00299 | 12.99302 | 6262 ft | 265 kts | 153° |
| 2026-05-06 18:18 | 47.98690 | 13.00651 | 5963 ft | 265 kts | 153° |
| 2026-05-06 18:18 | 47.97033 | 13.01718 | 5656 ft | 262 kts | 169° |
| 2026-05-06 18:18 | 47.95241 | 13.02216 | 5408 ft | 260 kts | 171° |
| 2026-05-06 18:18 | 47.93476 | 13.02709 | 5289 ft | 253 kts | 171° |
| 2026-05-06 18:19 | 47.91795 | 13.03203 | 5152 ft | 245 kts | 171° |
| 2026-05-06 18:19 | 47.90187 | 13.03689 | 5042 ft | 241 kts | 172° |
| 2026-05-06 18:19 | 47.88566 | 13.04181 | 4953 ft | 236 kts | 172° |
| 2026-05-06 18:19 | 47.86969 | 13.04667 | 4778 ft | 234 kts | 171° |
| 2026-05-06 18:20 | 47.85367 | 13.05154 | 4487 ft | 233 kts | 172° |
| 2026-05-06 18:20 | 47.83809 | 13.05630 | 4169 ft | 224 kts | 172° |
| 2026-05-06 18:20 | 47.82320 | 13.06085 | 3853 ft | 213 kts | 172° |
| 2026-05-06 18:20 | 47.80922 | 13.06517 | 3745 ft | 195 kts | 172° |
| 2026-05-06 18:21 | 47.79672 | 13.06903 | 3623 ft | 171 kts | 172° |
| 2026-05-06 18:21 | 47.78553 | 13.07256 | 3342 ft | 161 kts | 171° |
| 2026-05-06 18:21 | 47.77482 | 13.07585 | 2957 ft | 158 kts | 175° |
| 2026-05-06 18:21 | 47.76442 | 13.07568 | 2733 ft | 145 kts | 204° |
| 2026-05-06 18:22 | 47.75957 | 13.07212 | 2592 ft | 139 kts | 224° |
| 2026-05-06 18:22 | 47.75293 | 13.06199 | 2375 ft | 140 kts | 240° |
| 2026-05-06 18:22 | 47.75081 | 13.04823 | 2006 ft | 132 kts | 281° |
| 2026-05-06 18:22 | 47.75412 | 13.03581 | 1793 ft | 138 kts | 308° |
| 2026-05-06 18:23 | 47.76089 | 13.02582 | 1783 ft | 137 kts | 326° |
| 2026-05-06 18:23 | 47.76952 | 13.01886 | 1699 ft | 148 kts | 336° |
| 2026-05-06 18:23 | 47.77943 | 13.01282 | 1572 ft | 159 kts | 335° |
| 2026-05-06 18:23 | 47.78971 | 13.00619 | 1437 ft | 154 kts | 337° |
| 2026-05-06 18:24 | 47.79859 | 13.00059 | 1418 ft | 100 kts | 337° |
| 2026-05-06 18:24 | 47.80180 | 12.99856 | 1420 ft | 24 kts | 337° |
| 2026-05-06 18:24 | 47.80272 | 12.99781 | 1419 ft | 2 kts | 300° |
| 2026-05-06 18:24 | 47.80275 | 12.99769 | 1420 ft | 1 kts | 288° |
| 2026-05-06 18:25 | 47.80276 | 12.99752 | 1420 ft | 3 kts | 277° |
| 2026-05-06 18:25 | 47.80276 | 12.99709 | 1422 ft | 5 kts | 264° |
| 2026-05-06 18:25 | 47.80258 | 12.99644 | 1423 ft | 9 kts | 232° |
| 2026-05-06 18:25 | 47.80185 | 12.99597 | 1422 ft | 16 kts | 169° |
| 2026-05-06 18:26 | 47.80074 | 12.99661 | 1421 ft | 16 kts | 157° |
| 2026-05-06 18:26 | 47.79975 | 12.99724 | 1421 ft | 15 kts | 156° |
| 2026-05-06 18:26 | 47.79879 | 12.99785 | 1421 ft | 15 kts | 157° |
| 2026-05-06 18:26 | 47.79795 | 12.99838 | 1421 ft | 12 kts | 157° |
| 2026-05-06 18:27 | 47.79721 | 12.99884 | 1421 ft | 11 kts | 157° |
| 2026-05-06 18:27 | 47.79649 | 12.99929 | 1421 ft | 11 kts | 156° |
| 2026-05-06 18:27 | 47.79579 | 12.99975 | 1422 ft | 11 kts | 156° |
| 2026-05-06 18:27 | 47.79511 | 13.00017 | 1422 ft | 10 kts | 157° |
| 2026-05-06 18:28 | 47.79436 | 13.00064 | 1421 ft | 13 kts | 157° |
| 2026-05-06 18:28 | 47.79359 | 13.00058 | 1421 ft | 8 kts | 230° |
| 2026-05-06 18:28 | 47.79332 | 12.99980 | 1421 ft | 8 kts | 242° |
| 2026-05-06 18:28 | 47.79302 | 12.99950 | 1421 ft | 7 kts | 191° |
| 2026-05-06 18:29 | 47.79247 | 12.99970 | 1421 ft | 10 kts | 159° |
| 2026-05-06 18:29 | 47.79199 | 12.99999 | 1421 ft | 4 kts | 165° |
| 2026-05-06 18:29 | 47.79187 | 13.00005 | 1421 ft | 2 kts | 158° |
| 2026-05-06 18:29 | 47.79177 | 13.00011 | 1421 ft | 2 kts | 158° |
| 2026-05-06 18:30 | 47.79161 | 13.00018 | 1421 ft | 1 kts | 182° |
| 2026-05-06 18:30 | 47.79148 | 12.99991 | 1421 ft | 3 kts | 267° |
| 2026-05-06 18:30 | 47.79160 | 12.99947 | 1421 ft | 5 kts | 289° |
| 2026-05-06 18:30 | 47.79165 | 12.99911 | 1421 ft | 0 kts | 282° |
| 2026-05-06 18:31 | 47.79168 | 12.99896 | 1421 ft | 0 kts | 282° |